Terminal Aerodrome Forecast
Issued by NWS

Home | Current Version | Previous Version | Text Only | Print | Product List | Glossary On
Versions: 1 2 3 4 5 6 7 8 9 10 11 12 13
000
FTUS44 KLIX 281100
TAFMSY
TAF
KMSY 281120Z 2812/2912 09004KT P6SM FEW030 SCT100 BKN250
     FM281700 10007KT P6SM SCT040 BKN080 BKN150=

USA.gov is the U.S. government's official web portal to all federal, state and local government web resources and services.